AirNav   Everest Fuels
 
 1192 users online  

KCXE Chase City Municipal Airport
Chase City, Virginia, USA

GOING TO CHASE CITY?


FAA INFORMATION EFFECTIVE 18 JULY 2019

Location

FAA Identifier: CXE
Lat/Long: 36-47-18.0080N / 078-30-05.5930W
36-47.300133N / 078-30.093217W
36.7883356 / -78.5015536
(estimated)
Elevation: 503 ft. / 153.3 m (surveyed)
Variation: 09W (2005)
From city: 2 miles W of CHASE CITY, VA
Time zone: UTC -4 (UTC -5 during Standard Time)
Zip code: 23924

Airport Operations

Airport use: Open to the public
Activation date: 09/1952
Control tower: no
ARTCC: WASHINGTON CENTER
FSS: LEESBURG FLIGHT SERVICE STATION
NOTAMs facility: DCA (NOTAM-D service available)
Attendance: UNATTENDED
Pattern altitude: 1303 ft. MSL
Wind indicator: yes
Segmented circle: no

Airport Communications

CTAF: 122.9
WX AWOS-3: 121.225 (434-372-4506)
WX AWOS-3 at W63 (12 nm S): 118.225 (434-374-2431)
WX AWOS-3 at W78 (17 nm W): 119.425 (434-575-0332)
WX AWOS-3 at W31 (18 nm NE): 123.875 (434-676-1078)
  • APCH/DEP SVC PRVDD BY WASHINGTON ARTCC ON FREQS 118.75/353.9 (GREEN BAY RCAG).

Nearby radio navigation aids

VOR radial/distance  VOR name  Freq  Var
SBVr080/25.6SOUTH BOSTON VORTAC110.4005W
LVLr274/28.8LAWRENCEVILLE VORTAC112.9008W

 
NDB name  Hdg/Dist  Freq  Var  ID
HUNTSBORO020/29.827109WHXO .... -..- ---
BLACKSTONE236/29.932609WBKT -... -.- -
FARMVILLE194/34.036709WFVX ..-. ...- -..-

Airport Services

Parking: tiedowns
Bottled oxygen: NONE
Bulk oxygen: NONE

Runway Information

Runway 18/36

Dimensions: 3400 x 50 ft. / 1036 x 15 m
Surface: asphalt, in poor condition
SEVERE RY CRACKING. 1-2 INCHES IN PLACES AND ALG CNTRLN.
LONGITUDINAL AND TRANSVERSE CRACKING. SOME RAVELING IN CERTAIN AREAS.
Weight bearing capacity: 
Single wheel: 12.5
Runway edge markings: MARKINGS SEVERELY FADED
MARKINGS SEVERELY FADED AND RAVELING.
RUNWAY 18  RUNWAY 36
Latitude: 36-47.578267N36-47.020417N
Longitude: 078-30.125467W078-30.060167W
Elevation: 503.0 ft.486.0 ft.
Traffic pattern: leftleft
Runway heading: 184 magnetic, 175 true004 magnetic, 355 true
Markings: nonprecision, in poor conditionnonprecision, in poor condition
Touchdown point: yes, no lightsyes, no lights
Obstructions: 23 ft. road, 200 ft. from runway, 108 ft. right of centerline
+6' GND; 115'R OF RY END; +20' ROAD 100' FM THR, 125'R.
26 ft. brush, 232 ft. from runway, 125 ft. right of centerline, 1:1 slope to clear
RISING GROUND 150 FT FM END OF RY.

Airport Ownership and Management from official FAA records

Ownership: Publicly-owned
Owner: TOWN OF CHASE CITY
319 N MAIN ST
CHASE CITY, VA 23924
Phone 434-372-5136
Manager: ANGELA LAWRENCE
319 N MAIN ST
CHASE CITY, VA 23924
Phone 434-372-5136
TOWN MANAGER.

Airport Operational Statistics

Aircraft based on the field: 6
Single engine airplanes: 6
    
Aircraft operations: avg 50/week *
77% transient general aviation
23% local general aviation
* for 12-month period ending 31 December 2017

Additional Remarks

DEER ON AND INVOF ARPT.
FARM EQUIPMENT OPERATING NEAR RUNWAY.
ARPT CLSD SS-SR INDEFLY.
FOR CD CTC WASHINGTON ARTCC AT 703-771-3587.

Instrument Procedures

NOTE: All procedures below are presented as PDF files. If you need a reader for these files, you should download the free Adobe Reader.

NOT FOR NAVIGATION. Please procure official charts for flight.
FAA instrument procedures published for use from 18 July 2019 at 0901Z to 16 August 2019 at 0900Z.

 
IAPs - Instrument Approach Procedures
RNAV (GPS) RWY 18   download
RNAV (GPS) RWY 36   download
NOTE: Special Take-Off Minimums/Departure Procedures apply   download (140KB)

Other nearby airports with instrument procedures:

W63 - Lake Country Regional Airport (12 nm S)
W78 - William M Tuck Airport (17 nm W)
W31 - Lunenburg County Airport (18 nm NE)
KAVC - Mecklenburg-Brunswick Regional Airport (22 nm E)
KHNZ - Henderson-Oxford Airport (26 nm S)
 
Loc | Ops | Rwys | IFR | FBO | Links
Com | Nav | Svcs | Stats | Notes
Area around KCXE (Chase City Municipal Airport)
 
Road maps at: MapQuest Bing Google
 
Aerial photo
WARNING: Photo may not be current or correct
Aerial photo of KCXE (Chase City Municipal Airport)
Do you have a better or more recent aerial photo of Chase City Municipal Airport that you would like to share? If so, please send us your photo.

 
Sectional chart

 
Airport distance calculator
Flying to Chase City Municipal Airport? Find the distance to fly.

From to KCXE

Sunrise and sunset
Times for 21-Jul-2019
 Local
(UTC-4)
 Zulu
(UTC)
Morning civil twilight05:4309:43
Sunrise06:1210:12
Sunset20:2900:29
Evening civil twilight20:5800:58

Current date and time
Zulu (UTC)  21-Jul-2019 19:59:39
Local (UTC-4)  21-Jul-2019 15:59:39
 
METAR
KCXE 211935Z AUTO 26005KT 10SM BKN065 35/20 A2994 RMK AO1 T03540201
KW63 
12nm S 
211955Z AUTO 20007G14KT 10SM CLR 36/20 A2993 RMK AO1
KW78 
17nm W 
211935Z AUTO 21005KT 10SM SCT065 37/19 A2994 RMK AO1 T03700193
KW31 
18nm NE 
211935Z AUTO 22004KT 10SM CLR 34/24 A2993 RMK AO1 T03400238
TAF
KDAN 
42nm W 
211720Z 2118/2218 27010KT P6SM SCT060 FM212000 24007KT P6SM SCT060 FM220000 23004KT P6SM SKC FM221700 24010G18KT P6SM SCT070
KLYH 
46nm NW 
211751Z 2118/2218 28010G18KT P6SM VCTS BKN040CB TEMPO 2118/2121 VRB20G35KT 2SM TSRA OVC025CB FM212100 21006KT P6SM VCTS BKN050CB FM220000 VRB03KT P6SM BKN080 FM221500 25007KT P6SM SCT120
NOTAMs
Click for the latest NOTAMs
NOTAMs are issued by the DoD/FAA and will open in a separate window not controlled by AirNav.

 

 
 

Would you like to see your business listed on this page?

 If your business provides an interesting product or service to pilots, flight crews, aircraft, or users of the Chase City Municipal Airport, you should consider listing it here.  To start the listing process, click on the button below
 
Add a business
 

Other Pages about Chase City Municipal Airport

www.flyvirginia.com/...
 
Update a link
 
Copyright © AirNav, LLC. All rights reserved. Privacy Policy  Contact